Ilheus, Brazil
Current Conditions -  °F | °C
As of 1:26 PM on Friday 24 Oct 2014 (Local Time) from SBIL Reporting Station
Drizzle Drizzle  
Wind Chill: 73°   Ceiling: 2000
Heat Index: 73°   Visibility: 3mi
Dew Point: 70°   Wind: 6mph
Humidity: 88%   Direction: 230°SW
Pressure: 30"   Gusts: NA
Location:  14.78°S, 39.05°W
Report Text: SBIL 241626Z 23005KT 5000 -DZ SCT015 BKN020 OVC100 23/21 Q1016
Loading
Personal Weather Stations






























Interactive Weather Map
Tropical Storm Tracking
New forecast layout! Learn more

10-Day Weather Forecast

Advertisements
Track Severe Weather on mobile